createdAt,value
2018-05-10T00:01:23.806Z,6.17
2018-05-10T00:03:52.550Z,5.40
2018-05-10T00:06:20.003Z,4.13
2018-05-10T00:08:47.459Z,4.27
2018-05-10T00:11:14.921Z,5.40
2018-05-10T00:13:42.367Z,4.23
2018-05-10T00:16:09.813Z,4.27
2018-05-10T00:18:37.260Z,3.40
2018-05-10T00:21:04.717Z,3.53
2018-05-10T00:23:32.155Z,3.70
2018-05-10T00:26:00.378Z,4.70
2018-05-10T00:28:27.840Z,3.10
2018-05-10T00:30:55.280Z,3.60
2018-05-10T00:33:23.258Z,3.73
2018-05-10T00:35:50.712Z,3.77
2018-05-10T00:38:18.170Z,4.13
2018-05-10T00:40:45.633Z,4.50
2018-05-10T00:43:13.079Z,13.13
2018-05-10T00:45:40.546Z,3.97
2018-05-10T00:48:07.989Z,4.50
2018-05-10T00:50:35.538Z,3.87
2018-05-10T00:53:02.994Z,3.77
2018-05-10T00:55:30.667Z,4.90
2018-05-10T00:57:58.109Z,4.47
2018-05-10T01:00:25.651Z,5.63
2018-05-10T01:02:53.108Z,5.53
2018-05-10T01:05:20.563Z,5.37
2018-05-10T01:07:48.783Z,5.87
2018-05-10T01:10:16.237Z,5.37
2018-05-10T01:12:44.142Z,6.37
2018-05-10T01:15:12.378Z,5.30
2018-05-10T01:17:39.824Z,6.27
2018-05-10T01:20:07.278Z,5.70
2018-05-10T01:22:34.741Z,6.90
2018-05-10T01:25:02.987Z,7.67
2018-05-10T01:27:31.152Z,7.70
2018-05-10T01:29:59.372Z,7.07
2018-05-10T01:32:26.803Z,8.30
2018-05-10T01:35:06.275Z,6.37
2018-05-10T01:37:33.722Z,7.17
2018-05-10T01:40:01.187Z,6.17
2018-05-10T01:42:28.722Z,6.70
2018-05-10T01:44:56.169Z,5.50
2018-05-10T01:47:23.613Z,5.60
2018-05-10T01:49:52.759Z,6.10
2018-05-10T01:52:20.206Z,5.37
2018-05-10T01:54:47.666Z,5.00
2018-05-10T01:57:15.120Z,5.97
2018-05-10T01:59:42.567Z,5.60
2018-05-10T02:02:10.025Z,5.57
2018-05-10T02:04:37.486Z,6.47
2018-05-10T02:07:04.930Z,6.33
2018-05-10T02:09:32.376Z,6.43
2018-05-10T02:11:59.834Z,8.90
2018-05-10T02:14:27.282Z,6.20
2018-05-10T02:16:54.728Z,6.03
2018-05-10T02:19:22.951Z,5.33
2018-05-10T02:21:50.390Z,5.37
2018-05-10T02:24:17.845Z,6.47
2018-05-10T02:26:45.287Z,6.07
2018-05-10T02:29:12.811Z,6.77
2018-05-10T02:31:40.248Z,5.97
2018-05-10T02:34:07.711Z,5.47
2018-05-10T02:36:35.990Z,6.30
2018-05-10T02:39:03.432Z,7.43
2018-05-10T02:41:31.722Z,8.33
2018-05-10T02:43:59.171Z,6.63
2018-05-10T02:46:26.622Z,7.80
2018-05-10T02:48:54.081Z,7.03
2018-05-10T02:51:21.515Z,7.33
2018-05-10T02:53:49.297Z,7.30
2018-05-10T02:56:17.073Z,7.87
2018-05-10T02:58:44.510Z,8.43
2018-05-10T03:01:11.965Z,8.07
2018-05-10T03:03:39.441Z,7.43
2018-05-10T03:06:06.889Z,8.73
2018-05-10T03:08:34.338Z,8.60
2018-05-10T03:11:01.817Z,19.50
2018-05-10T03:13:29.266Z,36.80
2018-05-10T03:15:56.718Z,31.70
2018-05-10T03:18:24.826Z,13.47
2018-05-10T03:20:54.070Z,25.50
2018-05-10T03:23:21.530Z,18.63
2018-05-10T03:25:48.987Z,16.20
2018-05-10T03:28:16.449Z,12.00
2018-05-10T03:30:43.899Z,9.73
2018-05-10T03:33:11.410Z,46.63
2018-05-10T03:35:38.818Z,44.40
2018-05-10T03:38:06.268Z,23.63
2018-05-10T03:40:33.816Z,25.57
2018-05-10T03:43:01.201Z,17.27
2018-05-10T03:45:28.671Z,12.10
2018-05-10T03:47:56.133Z,18.80
2018-05-10T03:50:23.606Z,9.87
2018-05-10T03:52:52.929Z,9.10
2018-05-10T03:55:21.158Z,9.40
2018-05-10T03:57:48.624Z,9.80
2018-05-10T04:00:16.065Z,11.50
2018-05-10T04:16:19.070Z,12.67
2018-05-10T04:18:46.529Z,12.60
2018-05-10T04:21:13.989Z,14.63
2018-05-10T04:23:42.213Z,16.97
2018-05-10T04:26:09.678Z,22.87
2018-05-10T04:28:37.143Z,32.07
2018-05-10T04:31:04.610Z,38.50
2018-05-10T04:33:32.073Z,35.83
2018-05-10T04:35:59.678Z,37.70
2018-05-10T04:38:27.918Z,42.53
2018-05-10T04:40:55.394Z,43.87
2018-05-10T04:43:23.611Z,41.60
2018-05-10T04:45:51.708Z,50.10
2018-05-10T04:48:19.164Z,47.30
2018-05-10T04:50:46.621Z,51.07
2018-05-10T04:53:14.066Z,53.90
2018-05-10T04:55:41.527Z,54.60
2018-05-10T04:58:09.493Z,45.40
2018-05-10T05:00:36.942Z,48.40
2018-05-10T05:03:04.402Z,43.67
2018-05-10T05:05:31.860Z,48.93
2018-05-10T05:08:00.297Z,48.30
2018-05-10T05:10:27.760Z,46.33
2018-05-10T05:12:55.974Z,48.00
2018-05-10T05:15:23.436Z,48.87
2018-05-10T05:17:51.680Z,45.30
2018-05-10T05:20:19.122Z,39.67
2018-05-10T05:22:46.578Z,35.97
2018-05-10T05:25:14.022Z,36.70
2018-05-10T05:27:42.241Z,33.30
2018-05-10T05:30:09.704Z,32.63
2018-05-10T05:32:37.203Z,32.73
2018-05-10T05:35:04.630Z,38.67
2018-05-10T05:37:32.091Z,32.17
2018-05-10T05:39:59.564Z,31.23
2018-05-10T05:42:27.010Z,32.50
2018-05-10T05:44:54.474Z,29.37
2018-05-10T05:47:21.930Z,31.70
2018-05-10T05:49:49.386Z,31.20
2018-05-10T05:52:16.858Z,33.03
2018-05-10T05:54:44.310Z,36.33
2018-05-10T05:57:11.773Z,38.90
2018-05-10T05:59:39.222Z,36.77
2018-05-10T06:02:06.678Z,36.77
2018-05-10T06:04:34.125Z,39.73
2018-05-10T06:07:01.585Z,40.17
2018-05-10T06:09:29.051Z,45.23
2018-05-10T06:11:56.509Z,44.20
2018-05-10T06:14:23.986Z,43.33
2018-05-10T06:16:52.381Z,38.30
2018-05-10T06:19:19.817Z,47.17
2018-05-10T06:21:48.059Z,45.67
2018-05-10T06:24:15.502Z,43.80
2018-05-10T06:26:42.951Z,48.20
2018-05-10T06:29:10.412Z,47.17
2018-05-10T06:31:37.870Z,50.27
2018-05-10T06:34:05.378Z,47.87
2018-05-10T06:36:32.802Z,48.10
2018-05-10T06:39:00.266Z,44.90
2018-05-10T06:41:27.788Z,47.40
2018-05-10T06:43:55.212Z,46.97
2018-05-10T06:46:23.434Z,48.03
2018-05-10T06:48:50.893Z,47.67
2018-05-10T06:51:18.358Z,48.70
2018-05-10T06:53:45.832Z,46.83
2018-05-10T06:56:13.602Z,48.33
2018-05-10T06:58:41.051Z,44.63
2018-05-10T07:01:08.509Z,47.00
2018-05-10T07:03:35.964Z,45.77
2018-05-10T07:06:03.421Z,49.30
2018-05-10T07:08:30.887Z,57.43
2018-05-10T07:10:58.352Z,48.60
2018-05-10T07:13:25.803Z,49.73
2018-05-10T07:15:53.262Z,51.63
2018-05-10T07:18:20.855Z,47.70
2018-05-10T07:20:48.311Z,43.17
2018-05-10T07:23:15.784Z,43.80
2018-05-10T07:25:43.254Z,39.60
2018-05-10T07:28:11.370Z,46.03
2018-05-10T07:30:39.599Z,38.43
2018-05-10T07:33:07.061Z,36.23
2018-05-10T07:35:34.518Z,32.70
2018-05-10T07:38:01.993Z,34.30
2018-05-10T07:40:29.450Z,34.33
2018-05-10T07:42:56.906Z,34.47
2018-05-10T07:45:24.842Z,30.37
2018-05-10T07:47:52.315Z,30.60
2018-05-10T07:50:19.802Z,32.40
2018-05-10T07:52:47.263Z,31.97
2018-05-10T07:55:14.716Z,30.27
2018-05-10T07:57:42.202Z,29.60
2018-05-10T08:00:10.414Z,31.53
2018-05-10T08:02:37.898Z,32.13
2018-05-10T08:05:05.375Z,29.13
2018-05-10T08:07:32.825Z,30.27
2018-05-10T08:10:00.290Z,32.93
2018-05-10T08:12:27.743Z,32.33
2018-05-10T08:14:55.192Z,29.23
2018-05-10T08:17:22.646Z,31.93
2018-05-10T08:19:50.098Z,30.07
2018-05-10T08:22:17.561Z,26.20
2018-05-10T08:24:45.027Z,25.50
2018-05-10T08:27:12.471Z,23.23
2018-05-10T08:29:39.930Z,24.63
2018-05-10T08:32:07.383Z,22.13
2018-05-10T08:34:34.854Z,25.33
2018-05-10T08:37:02.302Z,25.03
2018-05-10T08:39:29.767Z,21.37
2018-05-10T08:41:57.222Z,20.40
2018-05-10T08:44:24.688Z,19.20
2018-05-10T08:46:52.178Z,19.20
2018-05-10T08:49:19.622Z,17.30
2018-05-10T08:51:47.957Z,17.90
2018-05-10T08:54:15.314Z,16.43
2018-05-10T08:56:42.779Z,15.23
2018-05-10T08:59:10.226Z,15.77
2018-05-10T09:01:37.682Z,15.60
2018-05-10T09:04:05.146Z,15.27
2018-05-10T09:06:32.613Z,16.97
2018-05-10T09:09:00.068Z,16.90
2018-05-10T09:11:27.517Z,15.40
2018-05-10T09:13:54.970Z,14.40
2018-05-10T09:16:22.415Z,14.73
2018-05-10T09:18:49.903Z,16.83
2018-05-10T09:21:17.359Z,14.10
2018-05-10T09:23:44.816Z,14.23
2018-05-10T09:26:13.102Z,15.87
2018-05-10T09:28:41.407Z,16.90
2018-05-10T09:31:08.860Z,16.17
2018-05-10T09:33:36.678Z,17.10
2018-05-10T09:36:04.132Z,20.83
2018-05-10T09:38:31.597Z,16.33
2018-05-10T09:40:59.046Z,15.10
2018-05-10T09:43:26.502Z,16.33
2018-05-10T09:45:54.480Z,15.80
2018-05-10T09:48:22.030Z,16.43
2018-05-10T09:50:49.781Z,16.47
2018-05-10T09:53:17.232Z,16.13
2018-05-10T09:55:44.687Z,17.87
2018-05-10T09:58:12.158Z,17.67
2018-05-10T10:00:39.626Z,17.07
2018-05-10T10:03:07.098Z,16.57
2018-05-10T10:05:35.191Z,15.60
2018-05-10T10:08:03.503Z,18.40
2018-05-10T10:10:30.961Z,17.90
2018-05-10T10:12:58.423Z,16.37
2018-05-10T10:15:26.334Z,15.97
2018-05-10T10:17:54.566Z,17.23
2018-05-10T10:20:22.014Z,18.40
2018-05-10T10:22:49.483Z,18.13
2018-05-10T10:25:16.966Z,16.03
2018-05-10T10:27:45.403Z,17.03
2018-05-10T10:30:12.855Z,18.80
2018-05-10T10:32:40.339Z,17.43
2018-05-10T10:35:08.717Z,15.20
2018-05-10T10:37:36.166Z,15.80
2018-05-10T10:40:03.694Z,15.33
2018-05-10T10:42:31.986Z,16.17
2018-05-10T10:44:59.438Z,15.50
2018-05-10T10:47:26.899Z,15.53
2018-05-10T10:49:54.952Z,15.83
2018-05-10T10:52:22.402Z,13.67
2018-05-10T10:54:49.855Z,14.57
2018-05-10T10:57:18.086Z,14.47
2018-05-10T10:59:45.547Z,16.03
2018-05-10T11:02:13.010Z,13.13
2018-05-10T11:04:40.524Z,14.40
2018-05-10T11:07:07.970Z,13.13
2018-05-10T11:09:35.422Z,12.23
2018-05-10T11:12:02.926Z,12.30
2018-05-10T11:14:30.372Z,13.27
2018-05-10T11:16:57.839Z,14.43
2018-05-10T11:19:25.830Z,13.07
2018-05-10T11:21:53.548Z,12.47
2018-05-10T11:24:21.007Z,13.77
2018-05-10T11:26:48.457Z,14.27
2018-05-10T11:29:15.906Z,13.13
2018-05-10T11:31:43.468Z,14.93
2018-05-10T11:34:10.930Z,16.70
2018-05-10T11:36:38.390Z,16.60
2018-05-10T11:39:05.915Z,15.87
2018-05-10T11:41:33.295Z,15.57
2018-05-10T11:44:00.747Z,15.60
2018-05-10T11:46:28.218Z,19.60
2018-05-10T11:48:55.679Z,17.90
2018-05-10T11:51:23.137Z,17.13
2018-05-10T11:53:50.594Z,16.60
2018-05-10T11:56:18.140Z,19.70
2018-05-10T11:58:45.835Z,19.13
2018-05-10T12:01:13.287Z,19.20
2018-05-10T12:03:40.742Z,18.50
2018-05-10T12:06:08.259Z,19.43
2018-05-10T12:08:35.673Z,19.73
2018-05-10T12:11:03.125Z,19.10
2018-05-10T12:13:30.583Z,20.23
2018-05-10T12:15:58.039Z,17.70
2018-05-10T12:18:25.500Z,18.57
2018-05-10T12:20:52.949Z,24.50
2018-05-10T12:23:20.405Z,19.93
2018-05-10T12:25:47.873Z,22.43
2018-05-10T12:28:15.634Z,17.73
2018-05-10T12:30:43.083Z,20.10
2018-05-10T12:33:10.538Z,20.90
2018-05-10T12:35:37.998Z,24.83
2018-05-10T12:38:05.459Z,21.83
2018-05-10T12:40:32.931Z,25.20
2018-05-10T12:43:00.405Z,27.00
2018-05-10T12:45:28.634Z,27.33
2018-05-10T12:47:56.090Z,32.57
2018-05-10T12:50:23.963Z,27.37
2018-05-10T12:52:51.430Z,29.43
2018-05-10T12:55:19.113Z,35.83
2018-05-10T12:57:46.566Z,36.90
2018-05-10T13:00:14.018Z,32.67
2018-05-10T13:02:41.462Z,36.37
2018-05-10T13:05:08.920Z,39.40
2018-05-10T13:07:36.390Z,36.43
2018-05-10T13:10:03.845Z,30.80
2018-05-10T13:12:31.299Z,32.10
2018-05-10T13:14:58.756Z,29.00
2018-05-10T13:17:26.213Z,30.70
2018-05-10T13:19:53.666Z,37.23
2018-05-10T13:22:21.132Z,25.83
2018-05-10T13:24:48.588Z,29.83
2018-05-10T13:27:16.127Z,25.83
2018-05-10T13:29:44.147Z,24.50
2018-05-10T13:32:12.660Z,21.00
2018-05-10T13:34:40.120Z,18.60
2018-05-10T13:37:07.576Z,13.53
2018-05-10T13:39:35.028Z,11.17
2018-05-10T13:42:02.486Z,14.10
2018-05-10T13:44:29.930Z,9.23
2018-05-10T13:46:57.412Z,8.53
2018-05-10T13:49:24.850Z,8.20
2018-05-10T13:51:52.842Z,6.57
2018-05-10T13:54:20.282Z,10.40
2018-05-10T13:56:47.736Z,9.97
2018-05-10T13:59:15.200Z,10.17
2018-05-10T14:01:42.648Z,8.40
2018-05-10T14:04:18.551Z,7.10
2018-05-10T14:06:45.994Z,6.23
2018-05-10T14:09:13.446Z,5.33
2018-05-10T14:11:40.889Z,7.10
2018-05-10T14:14:08.349Z,7.70
2018-05-10T14:16:35.882Z,8.07
2018-05-10T14:19:03.251Z,6.53
2018-05-10T14:21:30.695Z,6.60
2018-05-10T14:23:58.167Z,7.70
2018-05-10T14:26:26.068Z,8.50
2018-05-10T14:28:53.518Z,7.57
2018-05-10T14:31:20.982Z,5.63
2018-05-10T14:33:48.426Z,8.40
2018-05-10T14:36:16.185Z,7.63
2018-05-10T14:38:43.621Z,6.30
2018-05-10T14:41:11.076Z,6.33
2018-05-10T14:43:38.539Z,7.00
2018-05-10T14:46:05.998Z,9.27
2018-05-10T14:48:33.447Z,10.47
2018-05-10T14:51:01.006Z,9.03
2018-05-10T14:53:29.047Z,8.50
2018-05-10T14:55:57.279Z,6.70
2018-05-10T14:58:24.734Z,13.27
2018-05-10T15:00:52.174Z,8.37
2018-05-10T15:03:19.627Z,9.33
2018-05-10T15:05:47.083Z,6.50
2018-05-10T15:08:14.551Z,13.27
2018-05-10T15:10:41.996Z,9.37
2018-05-10T15:13:09.455Z,9.50
2018-05-10T15:15:36.932Z,8.40
2018-05-10T15:18:04.366Z,8.33
2018-05-10T15:20:31.822Z,8.77
2018-05-10T15:22:59.266Z,8.13
2018-05-10T15:25:26.726Z,10.00
2018-05-10T15:27:54.176Z,9.30
2018-05-10T15:30:21.634Z,7.73
2018-05-10T15:32:49.090Z,11.87
2018-05-10T15:35:16.538Z,9.30
2018-05-10T15:37:44.756Z,8.03
2018-05-10T15:40:12.206Z,11.37
2018-05-10T15:42:39.676Z,8.23
2018-05-10T15:45:07.122Z,13.10
2018-05-10T15:47:34.595Z,11.00
2018-05-10T15:50:02.046Z,11.87
2018-05-10T15:52:30.977Z,12.63
2018-05-10T15:54:58.411Z,12.07
2018-05-10T15:57:25.852Z,12.50
2018-05-10T15:59:53.310Z,13.10
2018-05-10T16:02:20.867Z,12.70
2018-05-10T16:04:48.320Z,14.87
2018-05-10T16:07:15.777Z,17.20
2018-05-10T16:09:43.230Z,12.50
2018-05-10T16:12:10.899Z,19.07
2018-05-10T16:14:38.670Z,17.77
2018-05-10T16:17:06.142Z,15.73
2018-05-10T16:19:33.595Z,16.90
2018-05-10T16:22:01.054Z,18.40
2018-05-10T16:24:28.498Z,19.30
2018-05-10T16:26:55.957Z,20.70
2018-05-10T16:29:23.418Z,19.17
2018-05-10T16:31:50.869Z,25.30
2018-05-10T16:34:18.350Z,30.80
2018-05-10T16:36:45.814Z,28.17
2018-05-10T16:39:14.040Z,24.53
2018-05-10T16:41:41.491Z,24.33
2018-05-10T16:44:08.956Z,24.70
2018-05-10T16:46:36.410Z,28.93
2018-05-10T16:49:03.858Z,24.97
2018-05-10T16:51:31.314Z,23.20
2018-05-10T16:53:58.813Z,27.50
2018-05-10T16:56:26.270Z,26.03
2018-05-10T16:58:53.713Z,24.30
2018-05-10T17:01:21.167Z,22.60
2018-05-10T17:03:48.671Z,27.60
2018-05-10T17:06:17.254Z,24.10
2018-05-10T17:08:45.467Z,26.30
2018-05-10T17:11:12.938Z,25.73
2018-05-10T17:13:40.403Z,30.87
2018-05-10T17:16:07.842Z,26.30
2018-05-10T17:18:35.339Z,30.23
2018-05-10T17:21:02.768Z,26.70
2018-05-10T17:23:30.242Z,26.53
2018-05-10T17:25:57.690Z,28.37
2018-05-10T17:28:25.153Z,26.33
2018-05-10T17:30:52.655Z,32.30
2018-05-10T17:33:20.084Z,28.50
2018-05-10T17:35:47.541Z,30.93
2018-05-10T17:38:15.006Z,26.43
2018-05-10T17:40:43.232Z,25.43
2018-05-10T17:43:10.706Z,31.17
2018-05-10T17:45:38.157Z,27.53
2018-05-10T17:48:05.608Z,28.77
2018-05-10T17:50:33.058Z,30.33
2018-05-10T17:53:00.519Z,25.67
2018-05-10T17:55:27.984Z,29.23
2018-05-10T17:57:55.448Z,28.00
2018-05-10T18:00:22.918Z,28.07
2018-05-10T18:02:50.643Z,25.40
2018-05-10T18:05:18.090Z,27.37
2018-05-10T18:07:45.547Z,27.10
2018-05-10T18:10:13.019Z,25.53
2018-05-10T18:12:40.470Z,33.60
2018-05-10T18:15:07.927Z,34.40
2018-05-10T18:17:35.383Z,25.83
2018-05-10T18:20:02.839Z,28.87
2018-05-10T18:22:30.322Z,28.80
2018-05-10T18:24:58.293Z,27.20
2018-05-10T18:27:25.746Z,25.50
2018-05-10T18:29:53.883Z,24.53
2018-05-10T18:32:21.913Z,28.13
2018-05-10T18:34:49.374Z,25.23
2018-05-10T18:37:16.831Z,22.47
2018-05-10T18:39:44.994Z,27.77
2018-05-10T18:42:12.458Z,24.60
2018-05-10T18:44:39.920Z,25.63
2018-05-10T18:47:07.764Z,23.60
2018-05-10T18:49:35.214Z,24.03
2018-05-10T18:52:03.546Z,26.67
2018-05-10T18:54:31.047Z,31.17
2018-05-10T18:56:58.446Z,30.77
2018-05-10T18:59:26.679Z,29.57
2018-05-10T19:01:54.224Z,23.20
2018-05-10T19:04:21.587Z,29.97
2018-05-10T19:06:49.039Z,24.13
2018-05-10T19:09:16.500Z,27.87
2018-05-10T19:11:43.961Z,29.80
2018-05-10T19:14:11.592Z,26.10
2018-05-10T19:16:39.052Z,32.00
2018-05-10T19:19:06.591Z,28.10
2018-05-10T19:21:34.824Z,36.23
2018-05-10T19:24:03.049Z,27.20
2018-05-10T19:26:31.419Z,30.07
2018-05-10T19:28:58.838Z,30.00
2018-05-10T19:31:26.294Z,30.50
2018-05-10T19:33:53.759Z,30.67
2018-05-10T19:36:21.861Z,26.70
2018-05-10T19:38:50.082Z,26.57
2018-05-10T19:41:17.538Z,23.07
2018-05-10T19:43:44.992Z,45.40
2018-05-10T19:46:12.689Z,31.17
2018-05-10T19:48:40.147Z,25.87
2018-05-10T19:51:07.590Z,25.33
2018-05-10T19:53:35.047Z,25.93
2018-05-10T19:56:02.494Z,26.77
2018-05-10T19:58:29.967Z,29.37
2018-05-10T20:00:58.240Z,29.80
2018-05-10T20:03:25.715Z,26.63
2018-05-10T20:05:53.162Z,34.30
2018-05-10T20:08:20.615Z,25.47
2018-05-10T20:10:48.080Z,27.13
2018-05-10T20:13:15.530Z,29.63
2018-05-10T20:15:43.006Z,28.30
2018-05-10T20:18:10.450Z,41.83
2018-05-10T20:20:38.774Z,30.57
2018-05-10T20:23:06.878Z,28.03
2018-05-10T20:25:34.331Z,25.80
2018-05-10T20:28:01.804Z,30.57
2018-05-10T20:30:29.286Z,26.00
2018-05-10T20:32:57.507Z,33.07
2018-05-10T20:35:24.962Z,30.57
2018-05-10T20:37:52.426Z,25.77
2018-05-10T20:40:19.885Z,25.97
2018-05-10T20:42:47.441Z,25.73
2018-05-10T20:45:14.893Z,37.00
2018-05-10T20:47:42.414Z,26.53
2018-05-10T20:50:10.641Z,27.73
2018-05-10T20:52:38.095Z,23.57
2018-05-10T20:55:05.592Z,29.00
2018-05-10T20:57:33.027Z,29.33
2018-05-10T21:00:00.486Z,28.57
2018-05-10T21:02:27.933Z,24.43
2018-05-10T21:04:55.943Z,29.20
2018-05-10T21:07:24.180Z,28.50
2018-05-10T21:09:51.687Z,27.80
2018-05-10T21:12:31.759Z,78.33
2018-05-10T21:14:59.235Z,33.07
2018-05-10T21:17:26.691Z,23.87
2018-05-10T21:19:54.134Z,24.17
2018-05-10T21:22:21.595Z,30.43
2018-05-10T21:24:49.503Z,29.83
2018-05-10T21:27:16.982Z,32.07
2018-05-10T21:29:45.207Z,35.60
2018-05-10T21:32:12.660Z,30.50
2018-05-10T21:34:40.132Z,32.63
2018-05-10T21:37:07.578Z,29.97
2018-05-10T21:39:35.036Z,27.57
2018-05-10T21:42:02.483Z,31.73
2018-05-10T21:44:30.698Z,29.70
2018-05-10T21:46:58.159Z,27.60
2018-05-10T21:49:38.173Z,32.57
2018-05-10T21:52:05.635Z,26.53
2018-05-10T21:54:33.095Z,30.93
2018-05-10T21:57:00.546Z,27.10
2018-05-10T21:59:28.015Z,24.83
2018-05-10T22:01:55.463Z,27.90
2018-05-10T22:04:23.530Z,25.53
2018-05-10T22:06:50.982Z,29.33
2018-05-10T22:09:18.450Z,27.67
2018-05-10T22:11:46.418Z,27.50
2018-05-10T22:14:13.874Z,25.73
2018-05-10T22:16:41.338Z,23.00
2018-05-10T22:19:09.722Z,26.60
2018-05-10T22:21:37.184Z,29.47
2018-05-10T22:24:04.643Z,26.03
2018-05-10T22:26:32.106Z,30.70
2018-05-10T22:28:59.573Z,28.03
2018-05-10T22:31:27.787Z,24.43
2018-05-10T22:33:55.251Z,25.53
2018-05-10T22:36:22.706Z,25.13
2018-05-10T22:38:50.159Z,25.43
2018-05-10T22:41:17.618Z,24.73
2018-05-10T22:43:45.078Z,21.37
2018-05-10T22:46:13.483Z,23.10
2018-05-10T22:48:40.930Z,21.40
2018-05-10T22:51:08.408Z,24.23
2018-05-10T22:53:35.868Z,25.17
2018-05-10T22:56:03.877Z,23.80
2018-05-10T22:58:31.336Z,30.30
2018-05-10T23:00:58.805Z,23.23
2018-05-10T23:03:26.255Z,23.73
2018-05-10T23:05:53.709Z,23.97
2018-05-10T23:08:21.167Z,20.43
2018-05-10T23:10:48.611Z,31.67
2018-05-10T23:13:16.083Z,20.87
2018-05-10T23:15:43.550Z,22.57
2018-05-10T23:18:11.012Z,21.50
2018-05-10T23:20:38.471Z,20.40
2018-05-10T23:23:05.923Z,29.10
2018-05-10T23:25:33.379Z,21.77
2018-05-10T23:28:00.838Z,21.30
2018-05-10T23:30:28.297Z,22.20
2018-05-10T23:32:56.182Z,23.70
2018-05-10T23:35:24.474Z,24.83
2018-05-10T23:37:51.938Z,19.03
2018-05-10T23:40:19.395Z,25.43
2018-05-10T23:42:46.843Z,20.47
2018-05-10T23:45:14.303Z,22.13
2018-05-10T23:47:41.750Z,20.73
2018-05-10T23:50:09.206Z,21.50
2018-05-10T23:52:36.657Z,21.63
2018-05-10T23:55:04.117Z,19.67
2018-05-10T23:57:31.561Z,19.90
2018-05-10T23:59:59.028Z,20.50
